• Join FlightAware (Why Join?)
  • Login
  • US Flag 
08:06PM EST


 

Airport Tracker/Info


-or-


 

Live Flight TrackerFlight Track Log ✈ SKW5554 ✈ 30-Apr-2013 ✈ KDEN - KBIS

Flight Track Log - Related Links

Times and Time Zones

All times are in EDT time to prevent confusion due to time zone crossing. See the SKW5554 flight status page for this flight to view local times or setup timezone preferences in your user account.

Time Position Orientation Groundspeed Altitude Reporting Facility
EDT Latitude Longitude Course Direction KTS MPH feet Rate Location/Type
04:55PM 39.9500 -104.6667 34° Northeast 212 244 8,200  Level Denver TRACON
04:56PM 40.0167 -104.6167 30° Northeast 284 327 9,400 1,500 Climbing Denver TRACON
04:57PM 40.0980 -104.4146 323° Northwest  Level FlightAware Approximate
04:57PM 40.1000 -104.5667 25° Northeast 326 375 11,200  Level Denver TRACON
04:58PM 40.2157 -104.5000 North  Level FlightAware Approximate
04:58PM 40.1428 -104.5297 33° Northeast 328 377 12,200  Level Denver Center
04:59PM 40.3442 -104.4558 37° Northeast  Level FlightAware Approximate
04:59PM 40.2275 -104.4728 27° Northeast 340 391 14,300  Level Denver Center
05:00PM 40.4486 -104.3366 34° Northeast  Level FlightAware Approximate
05:00PM 40.3192 -104.4078 28° Northeast 350 403 16,300  Level Denver Center
05:01PM 40.4125 -104.3481 26° Northeast 373 429 17,700 1,694 Climbing Denver Center
05:02PM 40.5047 -104.2817 29° Northeast 380 437 19,800 1,597 Climbing Denver Center
05:03PM 40.6061 -104.2203 25° Northeast 373 429 21,000 1,122 Climbing Denver Center
05:04PM 40.7033 -104.1642 24° Northeast 383 441 22,100 1,073 Climbing Denver Center
05:05PM 40.8108 -104.1050 23° Northeast 385 443 23,200 919 Climbing Denver Center
05:06PM 40.9097 -104.0503 23° Northeast 398 458 24,000 919 Climbing Denver Center
05:07PM 41.0267 -103.9842 23° Northeast 408 470 25,100 927 Climbing Denver Center
05:08PM 41.1292 -103.9258 23° Northeast 414 476 25,900 683 Climbing Denver Center
05:09PM 41.2331 -103.8653 24° Northeast 423 487 26,500 677 Climbing Denver Center
05:10PM 41.3558 -103.7950 23° Northeast 430 495 27,300 823 Climbing Denver Center
05:11PM 41.4625 -103.7325 24° Northeast 436 502 28,200 823 Climbing Denver Center
05:12PM 41.5858 -103.6611 23° Northeast 435 501 29,000 634 Climbing Denver Center
05:13PM 41.6928 -103.6000 23° Northeast 436 502 29,500 585 Climbing Denver Center
05:14PM 41.8206 -103.5258 23° Northeast 445 512 30,200 629 Climbing Denver Center
05:15PM 41.9325 -103.4642 22° Northeast 452 520 30,800 532 Climbing Denver Center
05:16PM 42.0672 -103.4033 19° North 457 526 31,300 387 Climbing Denver Center
05:17PM 42.1833 -103.3500 19° North 461 531 31,600 488 Climbing Denver Center
05:18PM 42.3217 -103.2875 18° North 467 537 32,300 537 Climbing Denver Center
05:19PM 42.4386 -103.2331 19° North 467 537 32,700 339 Climbing Denver Center
05:20PM 42.5556 -103.1781 19° North 466 536 33,000 145 Climbing Denver Center
05:21PM 42.6958 -103.1131 19° North 472 543 33,000  Level Denver Center
05:22PM 42.8172 -103.0544 20° North 480 552 33,000  Level Denver Center
05:23PM 42.9642 -102.9850 19° North 495 570 33,000  Level Denver Center
05:24PM 43.0919 -102.9272 18° North 503 579 33,000  Level Denver Center
05:25PM 43.2386 -102.8586 19° North 498 573 33,000  Level Denver Center
05:27PM 43.3631 -102.8006 19° North 496 571 33,000  Level Denver Center
05:28PM 43.5067 -102.7311 19° North 491 565 33,000  Level Denver Center
05:29PM 43.6306 -102.6719 19° North 492 566 33,000  Level Denver Center
05:30PM 43.7739 -102.6017 19° North 490 564 33,000  Level Denver Center
05:31PM 43.8781 -102.5517 19° North 494 568 33,000  Level Denver Center
05:32PM 44.0219 -102.4825 19° North 496 571 33,000  Level Denver Center
05:33PM 44.2072 -102.3950 19° North 500 575 33,000  Level Denver Center
05:34PM 44.3372 -102.3306 20° North 497 572 33,000  Level Denver Center
05:35PM 44.4700 -102.2664 19° North 501 577 33,000  Level Denver Center
05:36PM 44.5994 -102.1989 20° North 498 573 33,000  Level Denver Center
05:37PM 44.7308 -102.1347 19° North 497 572 33,000  Level Denver Center
05:38PM 44.8633 -102.0694 19° North 500 575 33,000  Level Denver Center
05:39PM 44.9394 -102.0294 20° North 497 572 33,000  Level Minneapolis Center
05:40PM 45.0708 -101.9553 22° Northeast 501 577 33,000  Level Minneapolis Center
05:41PM 45.1997 -101.8633 27° Northeast 510 587 33,000  Level Minneapolis Center
05:42PM 45.3328 -101.7728 26° Northeast 521 600 33,000 -726 Level Minneapolis Center
05:43PM 45.4625 -101.6836 26° Northeast 518 596 31,500 -2,146 Descending Minneapolis Center
05:44PM 45.5947 -101.5900 26° Northeast 524 603 28,600 -2,780 Descending Minneapolis Center
05:45PM 45.7258 -101.4983 26° Northeast 524 603 25,800 -2,710 Descending Minneapolis Center
05:46PM 45.8525 -101.4100 26° Northeast 515 593 23,000 -3,145 Descending Minneapolis Center
05:47PM 45.9989 -101.3047 27° Northeast 500 575 19,300 -3,290 Descending Minneapolis Center
05:48PM 46.1122 -101.2242 26° Northeast 477 549 16,200 -2,976 Descending Minneapolis Center
05:49PM 46.2092 -101.1367 32° Northeast 441 507 13,200 -2,195 Descending Minneapolis Center
05:50PM 46.2964 -101.0503 34° Northeast 412 474 11,700 -1,403 Descending Minneapolis Center
05:51PM 46.3728 -100.9747 34° Northeast 380 437 10,300 -1,355 Descending Minneapolis Center
05:52PM 46.4381 -100.9075 35° Northeast 339 390 8,900 -1,366 Descending Minneapolis Center
05:53PM 46.4986 -100.8481 34° Northeast 304 350 7,500 -1,366 Descending Minneapolis Center
05:54PM 46.5569 -100.7906 34° Northeast 280 322 6,100 -1,355 Descending Minneapolis Center